createdAt,value
2018-11-02T00:02:18.534Z,8.65
2018-11-02T00:04:50.494Z,8.20
2018-11-02T00:07:22.503Z,8.20
2018-11-02T00:09:54.498Z,8.53
2018-11-02T00:12:26.760Z,9.43
2018-11-02T00:14:58.645Z,10.30
2018-11-02T00:17:30.654Z,9.90
2018-11-02T00:20:02.687Z,10.30
2018-11-02T00:22:34.678Z,9.70
2018-11-02T00:25:06.682Z,8.68
2018-11-02T00:27:38.656Z,9.30
2018-11-02T00:30:10.649Z,10.45
2018-11-02T00:32:42.696Z,9.03
2018-11-02T00:35:14.662Z,10.20
2018-11-02T00:37:46.644Z,8.73
2018-11-02T00:40:18.613Z,9.58
2018-11-02T00:42:50.584Z,8.83
2018-11-02T00:45:22.626Z,8.65
2018-11-02T00:47:54.579Z,9.90
2018-11-02T00:50:26.610Z,10.43
2018-11-02T00:52:58.603Z,8.63
2018-11-02T00:55:30.625Z,9.48
2018-11-02T00:58:02.635Z,9.08
2018-11-02T01:00:34.606Z,9.60
2018-11-02T01:03:06.579Z,9.30
2018-11-02T01:05:39.656Z,9.23
2018-11-02T01:08:11.654Z,9.53
2018-11-02T01:10:43.641Z,8.98
2018-11-02T01:13:15.630Z,8.63
2018-11-02T01:15:47.615Z,9.33
2018-11-02T01:18:19.628Z,9.40
2018-11-02T01:20:51.625Z,9.78
2018-11-02T01:23:23.574Z,9.98
2018-11-02T01:25:55.539Z,10.00
2018-11-02T01:28:27.533Z,10.03
2018-11-02T01:30:59.487Z,10.23
2018-11-02T01:33:36.339Z,8.80
2018-11-02T01:36:09.391Z,9.10
2018-11-02T01:38:41.401Z,8.70
2018-11-02T01:41:13.360Z,8.98
2018-11-02T01:43:45.367Z,8.98
2018-11-02T01:46:17.331Z,8.00
2018-11-02T01:48:49.320Z,8.00
2018-11-02T01:51:21.283Z,8.90
2018-11-02T01:53:53.262Z,8.40
2018-11-02T01:56:25.219Z,9.15
2018-11-02T01:58:57.382Z,9.23
2018-11-02T02:01:29.394Z,8.83
2018-11-02T02:04:01.407Z,9.08
2018-11-02T02:06:33.412Z,8.80
2018-11-02T02:09:07.739Z,7.87
2018-11-02T02:11:39.751Z,7.85
2018-11-02T02:14:11.708Z,8.35
2018-11-02T02:16:43.679Z,8.18
2018-11-02T02:19:15.675Z,10.32
2018-11-02T02:21:47.638Z,8.30
2018-11-02T02:24:19.697Z,9.40
2018-11-02T02:26:51.705Z,10.78
2018-11-02T02:29:23.663Z,9.40
2018-11-02T02:31:55.661Z,10.10
2018-11-02T02:34:27.619Z,9.65
2018-11-02T02:36:59.582Z,9.60
2018-11-02T02:39:31.610Z,10.40
2018-11-02T02:42:03.739Z,10.53
2018-11-02T02:44:35.790Z,9.98
2018-11-02T02:47:07.753Z,9.93
2018-11-02T02:49:39.738Z,9.00
2018-11-02T02:52:11.776Z,9.50
2018-11-02T02:54:43.794Z,8.68
2018-11-02T02:57:15.774Z,8.65
2018-11-02T02:59:47.786Z,9.50
2018-11-02T03:02:19.739Z,8.83
2018-11-02T03:04:51.734Z,8.78
2018-11-02T03:07:23.775Z,8.20
2018-11-02T03:09:55.766Z,9.80
2018-11-02T03:12:27.766Z,8.35
2018-11-02T03:14:59.748Z,8.90
2018-11-02T03:17:31.730Z,8.68
2018-11-02T03:20:05.475Z,8.05
2018-11-02T03:22:37.733Z,8.33
2018-11-02T03:25:10.714Z,8.15
2018-11-02T03:27:42.751Z,8.05
2018-11-02T03:30:14.727Z,8.78
2018-11-02T03:32:46.731Z,9.20
2018-11-02T03:35:18.753Z,9.48
2018-11-02T03:37:50.771Z,8.65
2018-11-02T03:40:22.782Z,8.40
2018-11-02T03:42:54.802Z,10.30
2018-11-02T03:45:26.779Z,10.05
2018-11-02T03:47:58.758Z,9.30
2018-11-02T03:50:30.722Z,8.90
2018-11-02T03:53:02.874Z,10.18
2018-11-02T03:55:34.882Z,8.10
2018-11-02T03:58:06.891Z,9.58
2018-11-02T04:00:40.551Z,9.40
2018-11-02T04:03:12.523Z,9.13
2018-11-02T04:05:44.516Z,9.00
2018-11-02T04:08:16.490Z,9.28
2018-11-02T04:10:48.498Z,8.65
2018-11-02T04:13:20.463Z,9.60
2018-11-02T04:15:52.526Z,9.60
2018-11-02T04:18:24.514Z,9.50
2018-11-02T04:20:56.576Z,10.93
2018-11-02T04:23:28.551Z,9.45
2018-11-02T04:26:00.573Z,9.98
2018-11-02T04:28:32.566Z,10.48
2018-11-02T04:31:04.681Z,8.90
2018-11-02T04:33:36.603Z,10.03
2018-11-02T04:36:08.611Z,8.90
2018-11-02T04:38:40.651Z,8.95
2018-11-02T04:41:12.647Z,9.20
2018-11-02T04:43:44.630Z,9.90
2018-11-02T04:46:16.615Z,8.75
2018-11-02T04:48:48.616Z,10.58
2018-11-02T04:51:20.655Z,10.13
2018-11-02T04:53:54.078Z,9.20
2018-11-02T04:56:26.095Z,11.43
2018-11-02T04:58:58.118Z,10.08
2018-11-02T05:01:30.139Z,10.40
2018-11-02T05:04:02.115Z,9.73
2018-11-02T05:06:34.141Z,9.65
2018-11-02T05:09:07.076Z,10.65
2018-11-02T05:11:39.166Z,9.25
2018-11-02T05:14:11.153Z,9.85
2018-11-02T05:16:43.196Z,9.38
2018-11-02T05:19:15.287Z,10.38
2018-11-02T05:21:47.319Z,10.05
2018-11-02T05:24:19.324Z,9.25
2018-11-02T05:26:51.358Z,9.48
2018-11-02T05:29:23.330Z,10.55
2018-11-02T05:31:55.367Z,10.63
2018-11-02T05:34:27.376Z,10.75
2018-11-02T05:36:59.379Z,10.53
2018-11-02T05:39:31.432Z,11.70
2018-11-02T05:42:03.431Z,11.83
2018-11-02T05:44:35.446Z,10.88
2018-11-02T05:47:07.486Z,10.68
2018-11-02T05:49:39.564Z,10.98
2018-11-02T05:52:11.578Z,11.70
2018-11-02T05:54:43.601Z,11.35
2018-11-02T05:57:15.638Z,10.85
2018-11-02T05:59:47.600Z,10.30
2018-11-02T06:02:19.662Z,11.25
2018-11-02T06:04:51.678Z,13.03
2018-11-02T06:07:23.753Z,10.65
2018-11-02T06:09:55.727Z,10.72
2018-11-02T06:12:27.739Z,11.43
2018-11-02T06:14:59.732Z,10.68
2018-11-02T06:17:31.762Z,11.12
2018-11-02T06:20:04.869Z,12.20
2018-11-02T06:22:37.282Z,12.00
2018-11-02T06:25:09.326Z,12.45
2018-11-02T06:27:42.200Z,12.65
2018-11-02T06:30:14.154Z,11.70
2018-11-02T06:32:46.268Z,11.60
2018-11-02T06:35:18.205Z,11.38
2018-11-02T06:37:50.273Z,11.88
2018-11-02T06:40:22.255Z,11.48
2018-11-02T06:42:54.303Z,11.90
2018-11-02T06:45:26.220Z,12.18
2018-11-02T06:47:58.220Z,11.50
2018-11-02T06:50:30.190Z,11.90
2018-11-02T06:53:02.191Z,10.98
2018-11-02T06:55:34.252Z,11.08
2018-11-02T06:58:06.275Z,12.15
2018-11-02T07:00:38.486Z,11.20
2018-11-02T07:03:10.275Z,12.05
2018-11-02T07:05:42.339Z,11.35
2018-11-02T07:08:14.396Z,11.08
2018-11-02T07:10:46.431Z,12.28
2018-11-02T07:13:18.573Z,11.43
2018-11-02T07:15:50.614Z,12.18
2018-11-02T07:18:22.622Z,12.90
2018-11-02T07:20:54.654Z,11.97
2018-11-02T07:23:26.673Z,12.90
2018-11-02T07:25:58.637Z,12.10
2018-11-02T07:28:30.631Z,11.73
2018-11-02T07:31:02.656Z,13.18
2018-11-02T07:33:34.662Z,11.93
2018-11-02T07:36:06.675Z,11.25
2018-11-02T07:38:38.791Z,11.08
2018-11-02T07:41:10.778Z,10.88
2018-11-02T07:43:42.807Z,10.72
2018-11-02T07:46:14.767Z,10.55
2018-11-02T07:48:46.821Z,10.95
2018-11-02T07:51:18.904Z,11.68
2018-11-02T07:53:50.851Z,10.50
2018-11-02T07:56:22.803Z,10.80
2018-11-02T07:58:54.872Z,11.75
2018-11-02T08:01:26.886Z,12.23
2018-11-02T08:03:59.459Z,12.43
2018-11-02T08:06:30.879Z,11.90
2018-11-02T08:09:03.913Z,12.15
2018-11-02T08:11:36.123Z,12.05
2018-11-02T08:14:07.959Z,13.18
2018-11-02T08:16:40.136Z,20.25
2018-11-02T08:19:12.151Z,14.60
2018-11-02T08:21:44.222Z,12.75
2018-11-02T08:24:16.301Z,13.18
2018-11-02T08:26:48.259Z,13.78
2018-11-02T08:29:20.259Z,13.25
2018-11-02T08:31:52.354Z,13.32
2018-11-02T08:34:24.340Z,12.60
2018-11-02T08:36:56.526Z,12.40
2018-11-02T08:39:28.549Z,12.45
2018-11-02T08:42:01.068Z,13.40
2018-11-02T08:44:33.306Z,12.75
2018-11-02T08:47:05.395Z,12.93
2018-11-02T08:49:44.495Z,14.75
2018-11-02T08:52:16.599Z,12.37
2018-11-02T08:54:48.847Z,12.55
2018-11-02T08:57:20.871Z,12.63
2018-11-02T08:59:52.955Z,12.55
2018-11-02T09:02:24.967Z,11.90
2018-11-02T09:04:57.054Z,12.00
2018-11-02T09:07:29.016Z,11.97
2018-11-02T09:10:01.050Z,12.70
2018-11-02T09:12:33.062Z,12.20
2018-11-02T09:15:05.120Z,12.23
2018-11-02T09:17:37.128Z,12.47
2018-11-02T09:20:09.133Z,13.32
2018-11-02T09:22:41.109Z,11.70
2018-11-02T09:25:13.110Z,11.73
2018-11-02T09:27:45.126Z,11.30
2018-11-02T09:30:17.088Z,11.87
2018-11-02T09:32:49.061Z,11.33
2018-11-02T09:35:21.063Z,11.25
2018-11-02T09:37:53.061Z,10.33
2018-11-02T09:40:25.260Z,11.20
2018-11-02T09:42:57.191Z,12.80
2018-11-02T09:45:29.232Z,11.50
2018-11-02T09:48:01.239Z,11.07
2018-11-02T09:50:33.255Z,11.40
2018-11-02T09:53:05.255Z,11.10
2018-11-02T09:55:37.227Z,12.23
2018-11-02T09:58:09.235Z,11.07
2018-11-02T10:00:41.222Z,11.50
2018-11-02T10:03:13.198Z,10.30
2018-11-02T10:05:45.203Z,10.07
2018-11-02T10:08:17.214Z,9.90
2018-11-02T10:10:49.215Z,12.50
2018-11-02T10:13:21.207Z,10.50
2018-11-02T10:15:53.203Z,10.57
2018-11-02T10:18:25.199Z,10.97
2018-11-02T10:20:57.187Z,11.23
2018-11-02T10:23:29.215Z,12.00
2018-11-02T10:26:01.372Z,13.93
2018-11-02T10:28:33.491Z,11.93
2018-11-02T10:31:05.706Z,10.73
2018-11-02T10:33:37.735Z,11.43
2018-11-02T10:36:09.800Z,10.70
2018-11-02T10:38:41.767Z,11.57
2018-11-02T10:41:17.947Z,10.57
2018-11-02T10:43:50.011Z,11.00
2018-11-02T10:46:22.027Z,10.20
2018-11-02T10:48:54.049Z,10.30
2018-11-02T10:51:26.067Z,10.27
2018-11-02T10:53:58.083Z,10.10
2018-11-02T10:56:30.158Z,10.97
2018-11-02T10:59:04.185Z,10.80
2018-11-02T11:01:42.042Z,12.00
2018-11-02T11:04:14.015Z,11.63
2018-11-02T11:06:46.232Z,11.53
2018-11-02T11:09:18.266Z,10.90
2018-11-02T11:11:50.492Z,11.23
2018-11-02T11:14:22.299Z,10.83
2018-11-02T11:16:54.310Z,10.77
2018-11-02T11:19:26.338Z,11.70
2018-11-02T11:21:58.303Z,11.37
2018-11-02T11:24:30.311Z,11.33
2018-11-02T11:27:02.319Z,10.47
2018-11-02T11:29:34.469Z,10.57
2018-11-02T11:32:06.479Z,10.73
2018-11-02T11:34:38.564Z,11.17
2018-11-02T11:37:10.540Z,11.03
2018-11-02T11:39:42.612Z,10.20
2018-11-02T11:42:14.607Z,11.20
2018-11-02T11:44:46.611Z,9.77
2018-11-02T11:47:18.632Z,9.43
2018-11-02T11:49:50.634Z,10.40
2018-11-02T11:52:22.654Z,9.77
2018-11-02T11:54:54.658Z,9.93
2018-11-02T11:57:26.711Z,9.93
2018-11-02T11:59:58.753Z,9.53
2018-11-02T12:02:30.874Z,9.60
2018-11-02T12:05:02.806Z,10.27
2018-11-02T12:07:34.797Z,10.57
2018-11-02T12:10:09.316Z,9.40
2018-11-02T12:12:41.334Z,11.50
2018-11-02T12:15:15.548Z,8.33
2018-11-02T12:17:47.994Z,7.80
2018-11-02T12:20:22.410Z,8.03
2018-11-02T12:22:55.908Z,8.53
2018-11-02T12:25:27.975Z,8.87
2018-11-02T12:28:00.039Z,8.13
2018-11-02T12:30:32.025Z,8.67
2018-11-02T12:33:04.346Z,8.30
2018-11-02T12:35:36.374Z,7.70
2018-11-02T12:38:08.377Z,7.53
2018-11-02T12:40:40.393Z,8.43
2018-11-02T12:43:12.452Z,8.00
2018-11-02T12:45:44.470Z,7.23
2018-11-02T12:48:16.594Z,6.07
2018-11-02T12:50:48.563Z,5.33
2018-11-02T12:53:20.571Z,4.53
2018-11-02T12:55:52.604Z,4.03
2018-11-02T12:58:24.668Z,7.30
2018-11-02T13:00:56.722Z,4.27
2018-11-02T13:03:28.747Z,7.20
2018-11-02T13:06:00.759Z,4.50
2018-11-02T13:08:32.789Z,3.80
2018-11-02T13:11:04.790Z,4.30
2018-11-02T13:13:36.806Z,3.30
2018-11-02T13:16:08.972Z,4.00
2018-11-02T13:18:40.841Z,3.20
2018-11-02T13:21:12.885Z,3.77
2018-11-02T13:23:44.886Z,4.50
2018-11-02T13:26:16.929Z,3.90
2018-11-02T13:28:48.867Z,4.30
2018-11-02T13:31:21.031Z,10.33
2018-11-02T13:33:52.887Z,5.00
2018-11-02T13:36:25.560Z,5.37
2018-11-02T13:38:57.511Z,13.27
2018-11-02T13:41:29.515Z,5.63
2018-11-02T13:44:01.535Z,9.47
2018-11-02T13:46:33.536Z,5.27
2018-11-02T13:49:06.234Z,14.10
2018-11-02T13:51:38.246Z,6.27
2018-11-02T13:54:11.746Z,7.30
2018-11-02T13:56:43.724Z,4.97
2018-11-02T13:59:15.790Z,6.00
2018-11-02T14:01:47.847Z,10.30
2018-11-02T14:04:19.854Z,6.57
2018-11-02T14:06:51.864Z,5.70
2018-11-02T14:09:23.868Z,5.93
2018-11-02T14:11:55.899Z,6.13
2018-11-02T14:14:27.961Z,6.20
2018-11-02T14:17:00.500Z,9.73
2018-11-02T14:19:32.469Z,5.80
2018-11-02T14:22:04.558Z,5.77
2018-11-02T14:24:36.542Z,5.27
2018-11-02T14:27:08.519Z,5.00
2018-11-02T14:29:40.575Z,7.50
2018-11-02T14:32:12.599Z,5.30
2018-11-02T14:34:44.591Z,4.93
2018-11-02T14:37:16.658Z,5.60
2018-11-02T14:39:48.771Z,4.80
2018-11-02T14:42:20.818Z,5.20
2018-11-02T14:44:52.826Z,6.70
2018-11-02T14:47:24.844Z,8.20
2018-11-02T14:49:56.874Z,5.63
2018-11-02T14:52:29.078Z,5.87
2018-11-02T14:55:01.114Z,7.30
2018-11-02T14:57:33.146Z,6.60
2018-11-02T15:00:06.533Z,5.03
2018-11-02T15:02:39.100Z,5.87
2018-11-02T15:05:12.380Z,5.70
2018-11-02T15:07:44.373Z,5.90
2018-11-02T15:10:16.462Z,6.20
2018-11-02T15:12:48.458Z,4.80
2018-11-02T15:15:20.430Z,5.10
2018-11-02T15:17:52.386Z,5.00
2018-11-02T15:20:24.403Z,4.77
2018-11-02T15:22:56.391Z,4.23
2018-11-02T15:25:28.362Z,5.20
2018-11-02T15:28:00.372Z,4.17
2018-11-02T15:30:32.376Z,4.20
2018-11-02T15:33:05.003Z,3.90
2018-11-02T15:35:37.030Z,4.13
2018-11-02T15:38:09.163Z,4.10
2018-11-02T15:40:41.259Z,4.90
2018-11-02T15:43:13.755Z,4.03
2018-11-02T15:45:45.739Z,4.47
2018-11-02T15:48:17.794Z,3.53
2018-11-02T15:50:49.825Z,4.37
2018-11-02T15:53:21.892Z,6.10
2018-11-02T15:55:53.847Z,4.70
2018-11-02T15:58:25.830Z,3.63
2018-11-02T16:00:57.815Z,3.50
2018-11-02T16:03:29.819Z,3.70
2018-11-02T16:06:01.807Z,3.90
2018-11-02T16:08:33.843Z,4.00
2018-11-02T16:11:05.857Z,4.00
2018-11-02T16:13:37.925Z,3.60
2018-11-02T16:16:09.924Z,4.60
2018-11-02T16:18:42.369Z,4.10
2018-11-02T16:21:14.394Z,3.33
2018-11-02T16:23:46.415Z,4.30
2018-11-02T16:26:18.420Z,4.67
2018-11-02T16:28:50.485Z,3.60
2018-11-02T16:31:22.501Z,4.87
2018-11-02T16:33:54.546Z,3.67
2018-11-02T16:36:26.569Z,4.37
2018-11-02T16:38:58.730Z,5.00
2018-11-02T16:41:30.723Z,4.27
2018-11-02T16:44:02.754Z,4.30
2018-11-02T16:46:34.735Z,3.73
2018-11-02T16:49:06.754Z,3.90
2018-11-02T16:51:38.758Z,3.70
2018-11-02T16:54:11.772Z,4.00
2018-11-02T16:56:43.831Z,4.37
2018-11-02T16:59:15.822Z,5.00
2018-11-02T17:01:47.827Z,4.73
2018-11-02T17:04:19.819Z,4.50
2018-11-02T17:06:51.934Z,5.37
2018-11-02T17:09:23.933Z,4.93
2018-11-02T17:11:55.935Z,5.23
2018-11-02T17:14:27.975Z,7.87
2018-11-02T17:17:00.214Z,5.87
2018-11-02T17:19:32.406Z,6.37
2018-11-02T17:22:04.431Z,6.47
2018-11-02T17:24:36.444Z,5.80
2018-11-02T17:27:08.474Z,5.67
2018-11-02T17:29:40.549Z,5.73
2018-11-02T17:32:12.586Z,6.20
2018-11-02T17:34:44.575Z,5.23
2018-11-02T17:37:16.639Z,6.33
2018-11-02T17:39:49.191Z,6.20
2018-11-02T17:42:21.235Z,6.13
2018-11-02T17:44:53.297Z,4.93
2018-11-02T17:47:25.418Z,5.67
2018-11-02T17:49:57.491Z,5.50
2018-11-02T17:52:29.433Z,5.43
2018-11-02T17:55:01.477Z,5.20
2018-11-02T17:57:33.576Z,5.27
2018-11-02T18:00:07.254Z,4.27
2018-11-02T18:02:39.359Z,4.80
2018-11-02T18:05:11.587Z,4.00
2018-11-02T18:07:43.579Z,4.10
2018-11-02T18:10:15.595Z,3.83
2018-11-02T18:12:47.628Z,3.90
2018-11-02T18:15:19.679Z,4.27
2018-11-02T18:17:51.719Z,4.33
2018-11-02T18:20:23.744Z,4.60
2018-11-02T18:22:55.765Z,3.77
2018-11-02T18:25:27.750Z,4.10
2018-11-02T18:27:59.758Z,4.37
2018-11-02T18:30:31.732Z,4.30
2018-11-02T18:33:03.923Z,3.90
2018-11-02T18:35:36.105Z,4.90
2018-11-02T18:38:08.013Z,4.40
2018-11-02T18:40:40.038Z,4.97
2018-11-02T18:43:12.190Z,4.40
2018-11-02T18:45:44.209Z,5.30
2018-11-02T18:48:16.279Z,4.67
2018-11-02T18:50:48.670Z,4.90
2018-11-02T18:53:20.706Z,4.50
2018-11-02T18:55:52.691Z,4.60
2018-11-02T18:58:24.679Z,4.37
2018-11-02T19:00:56.710Z,4.93
2018-11-02T19:03:28.768Z,4.30
2018-11-02T19:06:00.763Z,3.93
2018-11-02T19:08:32.784Z,4.73
2018-11-02T19:11:04.770Z,4.40
2018-11-02T19:13:36.771Z,4.90
2018-11-02T19:16:08.780Z,4.50
2018-11-02T19:18:41.455Z,4.70
2018-11-02T19:21:13.797Z,4.23
2018-11-02T19:23:45.788Z,4.60
2018-11-02T19:26:17.755Z,4.43
2018-11-02T19:28:49.782Z,4.70
2018-11-02T19:31:21.790Z,4.30
2018-11-02T19:33:53.766Z,4.90
2018-11-02T19:36:25.779Z,4.20
2018-11-02T19:38:57.784Z,4.70
2018-11-02T19:41:30.162Z,4.40
2018-11-02T19:44:02.203Z,4.90
2018-11-02T19:46:34.195Z,4.20
2018-11-02T19:49:06.269Z,4.50
2018-11-02T19:51:38.194Z,4.70
2018-11-02T19:54:10.199Z,4.03
2018-11-02T19:56:42.173Z,5.17
2018-11-02T19:59:14.158Z,4.87
2018-11-02T20:01:46.152Z,4.57
2018-11-02T20:04:18.191Z,6.00
2018-11-02T20:06:50.211Z,5.40
2018-11-02T20:09:22.290Z,5.97
2018-11-02T20:11:54.211Z,4.57
2018-11-02T20:14:26.467Z,5.50
2018-11-02T20:16:58.450Z,4.73
2018-11-02T20:19:30.542Z,5.20
2018-11-02T20:22:02.567Z,4.93
2018-11-02T20:24:34.571Z,4.80
2018-11-02T20:27:06.694Z,5.00
2018-11-02T20:29:38.755Z,5.10
2018-11-02T20:32:10.782Z,5.40
2018-11-02T20:34:43.552Z,4.90
2018-11-02T20:37:15.535Z,5.73
2018-11-02T20:39:47.551Z,5.13
2018-11-02T20:42:19.551Z,5.57
2018-11-02T20:44:51.636Z,5.43
2018-11-02T20:47:23.735Z,5.67
2018-11-02T20:49:55.751Z,5.20
2018-11-02T20:52:28.375Z,5.13
2018-11-02T20:55:00.379Z,4.72
2018-11-02T20:57:33.133Z,4.75
2018-11-02T21:00:07.242Z,4.33
2018-11-02T21:02:39.847Z,5.53
2018-11-02T21:05:12.969Z,5.15
2018-11-02T21:07:45.692Z,5.65
2018-11-02T21:10:18.707Z,5.90
2018-11-02T21:12:50.798Z,5.47
2018-11-02T21:15:23.962Z,5.62
2018-11-02T21:17:55.986Z,5.40
2018-11-02T21:20:28.088Z,5.47
2018-11-02T21:23:00.145Z,6.30
2018-11-02T21:25:32.139Z,6.15
2018-11-02T21:28:04.820Z,5.40
2018-11-02T21:30:36.792Z,5.40
2018-11-02T21:33:08.767Z,5.87
2018-11-02T21:35:40.760Z,5.75
2018-11-02T21:38:12.871Z,5.95
2018-11-02T21:40:44.814Z,5.50
2018-11-02T21:43:16.831Z,5.20
2018-11-02T21:45:48.842Z,5.65
2018-11-02T21:48:20.870Z,5.87
2018-11-02T21:50:52.905Z,5.75
2018-11-02T21:53:24.906Z,5.15
2018-11-02T21:55:56.878Z,4.72
2018-11-02T21:58:29.699Z,5.53
2018-11-02T22:01:01.791Z,5.87
2018-11-02T22:03:34.312Z,5.27
2018-11-02T22:06:06.731Z,5.40
2018-11-02T22:08:38.814Z,5.95
2018-11-02T22:11:11.052Z,5.67
2018-11-02T22:13:43.127Z,5.57
2018-11-02T22:16:15.439Z,4.90
2018-11-02T22:18:47.717Z,7.03
2018-11-02T22:21:19.899Z,5.33
2018-11-02T22:23:52.414Z,5.43
2018-11-02T22:26:24.650Z,5.50
2018-11-02T22:28:56.729Z,6.08
2018-11-02T22:31:28.723Z,4.97
2018-11-02T22:34:00.868Z,5.00
2018-11-02T22:36:32.906Z,5.47
2018-11-02T22:39:06.926Z,6.33
2018-11-02T22:41:38.931Z,5.10
2018-11-02T22:44:10.934Z,5.07
2018-11-02T22:46:42.963Z,5.20
2018-11-02T22:49:14.981Z,5.00
2018-11-02T22:51:47.006Z,5.25
2018-11-02T22:54:19.006Z,5.43
2018-11-02T22:56:51.007Z,5.13
2018-11-02T22:59:23.007Z,5.37
2018-11-02T23:01:55.019Z,5.22
2018-11-02T23:04:27.169Z,5.95
2018-11-02T23:06:59.224Z,4.87
2018-11-02T23:09:31.270Z,5.62
2018-11-02T23:12:03.311Z,5.10
2018-11-02T23:14:35.381Z,4.80
2018-11-02T23:17:07.438Z,5.37
2018-11-02T23:19:39.395Z,4.97
2018-11-02T23:22:11.410Z,5.10
2018-11-02T23:24:43.419Z,4.57
2018-11-02T23:27:15.459Z,4.45
2018-11-02T23:29:47.708Z,4.90
2018-11-02T23:32:19.859Z,4.90
2018-11-02T23:34:51.819Z,4.73
2018-11-02T23:37:23.831Z,4.90
2018-11-02T23:39:55.815Z,4.97
2018-11-02T23:42:27.939Z,5.67
2018-11-02T23:45:00.241Z,5.70
2018-11-02T23:47:32.083Z,5.22
2018-11-02T23:50:05.998Z,5.60
2018-11-02T23:52:37.975Z,4.65
2018-11-02T23:55:09.968Z,4.47
2018-11-02T23:57:41.958Z,5.17
